Linwood, New York
Current Conditions -  °F | °C
As of 2:54 AM on Saturday 25 Oct 2014 (Local Time) from KROC Reporting Station
Overcast Overcast  
Wind Chill: 45°   Ceiling: 6500
Heat Index: 47°   Visibility: 7mi
Dew Point: 44°   Wind: 5mph
Humidity: 90%   Direction: 240°WSW
Pressure: 29.89"   Gusts: NA
Location:  42.89°N, 77.95°W
Report Text: KROC 250654Z 24004KT 7SM OVC065 08/07 A2989 RMK AO2 SLP126 T00830067
Loading
Personal Weather Stations






























Interactive Weather Map
Tropical Storm Tracking
New forecast layout! Learn more

10-Day Weather Forecast

Advertisements
Track Severe Weather on mobile